sensor_id;sensor_type;location;lat;lon;timestamp;P1;durP1;ratioP1;P2;durP2;ratioP2
934;SDS011;454;53.254;10.400;2022-07-06T04:01:12;3.60;;;2.13;;
934;SDS011;454;53.254;10.400;2022-07-06T04:03:39;1.73;;;1.60;;
934;SDS011;454;53.254;10.400;2022-07-06T04:06:06;2.87;;;2.00;;
934;SDS011;454;53.254;10.400;2022-07-06T04:08:32;4.17;;;2.13;;
934;SDS011;454;53.254;10.400;2022-07-06T04:10:59;5.10;;;2.37;;
934;SDS011;454;53.254;10.400;2022-07-06T04:13:26;1.67;;;1.43;;
934;SDS011;454;53.254;10.400;2022-07-06T04:15:52;3.73;;;2.20;;
934;SDS011;454;53.254;10.400;2022-07-06T04:18:20;1.90;;;1.80;;
934;SDS011;454;53.254;10.400;2022-07-06T04:20:47;3.07;;;2.20;;
934;SDS011;454;53.254;10.400;2022-07-06T04:23:14;2.33;;;1.90;;
934;SDS011;454;53.254;10.400;2022-07-06T04:25:40;3.23;;;1.93;;
934;SDS011;454;53.254;10.400;2022-07-06T04:28:07;1.83;;;1.70;;
934;SDS011;454;53.254;10.400;2022-07-06T04:30:34;1.90;;;1.80;;
934;SDS011;454;53.254;10.400;2022-07-06T04:33:01;2.13;;;1.93;;
934;SDS011;454;53.254;10.400;2022-07-06T04:35:29;2.50;;;2.03;;
934;SDS011;454;53.254;10.400;2022-07-06T04:37:56;3.90;;;1.70;;
934;SDS011;454;53.254;10.400;2022-07-06T04:40:22;1.80;;;1.70;;
934;SDS011;454;53.254;10.400;2022-07-06T04:42:49;1.77;;;1.67;;
934;SDS011;454;53.254;10.400;2022-07-06T04:45:16;4.00;;;2.10;;
934;SDS011;454;53.254;10.400;2022-07-06T04:47:43;2.20;;;2.00;;
934;SDS011;454;53.254;10.400;2022-07-06T04:50:09;2.50;;;1.77;;
934;SDS011;454;53.254;10.400;2022-07-06T04:52:38;1.50;;;1.33;;
934;SDS011;454;53.254;10.400;2022-07-06T04:55:05;2.50;;;2.17;;
934;SDS011;454;53.254;10.400;2022-07-06T04:57:33;3.33;;;1.70;;
934;SDS011;454;53.254;10.400;2022-07-06T05:00:01;1.67;;;1.53;;
934;SDS011;454;53.254;10.400;2022-07-06T05:02:28;2.13;;;1.77;;
934;SDS011;454;53.254;10.400;2022-07-06T05:04:55;2.23;;;2.13;;
934;SDS011;454;53.254;10.400;2022-07-06T05:07:21;6.70;;;1.70;;
934;SDS011;454;53.254;10.400;2022-07-06T05:09:54;3.33;;;1.97;;
934;SDS011;454;53.254;10.400;2022-07-06T05:12:21;3.20;;;1.60;;
934;SDS011;454;53.254;10.400;2022-07-06T05:14:48;2.40;;;1.77;;
934;SDS011;454;53.254;10.400;2022-07-06T05:17:15;2.47;;;1.50;;
934;SDS011;454;53.254;10.400;2022-07-06T05:19:41;7.37;;;1.90;;
934;SDS011;454;53.254;10.400;2022-07-06T05:22:08;2.47;;;1.30;;
934;SDS011;454;53.254;10.400;2022-07-06T05:24:35;1.90;;;1.90;;
934;SDS011;454;53.254;10.400;2022-07-06T05:27:03;1.63;;;1.40;;
934;SDS011;454;53.254;10.400;2022-07-06T05:29:30;1.63;;;1.40;;
934;SDS011;454;53.254;10.400;2022-07-06T05:31:57;1.73;;;1.53;;
934;SDS011;454;53.254;10.400;2022-07-06T05:34:23;1.83;;;1.47;;
934;SDS011;454;53.254;10.400;2022-07-06T05:36:50;1.80;;;1.27;;
934;SDS011;454;53.254;10.400;2022-07-06T05:39:17;1.23;;;1.17;;
934;SDS011;454;53.254;10.400;2022-07-06T05:41:46;3.20;;;1.70;;
934;SDS011;454;53.254;10.400;2022-07-06T05:44:14;1.53;;;1.53;;
934;SDS011;454;53.254;10.400;2022-07-06T05:46:41;4.70;;;2.10;;
934;SDS011;454;53.254;10.400;2022-07-06T05:49:08;1.60;;;1.60;;
934;SDS011;454;53.254;10.400;2022-07-06T05:51:52;2.83;;;1.63;;
934;SDS011;454;53.254;10.400;2022-07-06T05:54:19;2.80;;;1.90;;
934;SDS011;454;53.254;10.400;2022-07-06T05:56:45;3.60;;;2.77;;
934;SDS011;454;53.254;10.400;2022-07-06T05:59:12;4.00;;;2.23;;
934;SDS011;454;53.254;10.400;2022-07-06T06:01:40;1.93;;;1.83;;
934;SDS011;454;53.254;10.400;2022-07-06T06:04:07;2.00;;;1.70;;
934;SDS011;454;53.254;10.400;2022-07-06T06:06:33;3.37;;;1.90;;
934;SDS011;454;53.254;10.400;2022-07-06T06:09:00;2.00;;;1.97;;
934;SDS011;454;53.254;10.400;2022-07-06T06:11:27;1.43;;;1.43;;
934;SDS011;454;53.254;10.400;2022-07-06T06:13:53;1.50;;;1.40;;
934;SDS011;454;53.254;10.400;2022-07-06T06:16:20;3.13;;;1.50;;
934;SDS011;454;53.254;10.400;2022-07-06T06:18:48;1.83;;;1.47;;
934;SDS011;454;53.254;10.400;2022-07-06T06:21:15;1.90;;;1.80;;
934;SDS011;454;53.254;10.400;2022-07-06T06:23:42;1.23;;;1.10;;
934;SDS011;454;53.254;10.400;2022-07-06T06:26:08;5.17;;;1.60;;
934;SDS011;454;53.254;10.400;2022-07-06T06:28:36;1.37;;;1.37;;
934;SDS011;454;53.254;10.400;2022-07-06T06:31:03;1.97;;;1.27;;
934;SDS011;454;53.254;10.400;2022-07-06T06:33:29;1.63;;;1.40;;
934;SDS011;454;53.254;10.400;2022-07-06T06:35:57;2.67;;;1.10;;
934;SDS011;454;53.254;10.400;2022-07-06T06:38:24;1.00;;;1.00;;
934;SDS011;454;53.254;10.400;2022-07-06T06:40:52;1.27;;;1.20;;
934;SDS011;454;53.254;10.400;2022-07-06T06:43:19;1.77;;;1.37;;
934;SDS011;454;53.254;10.400;2022-07-06T06:45:46;2.15;;;1.17;;
934;SDS011;454;53.254;10.400;2022-07-06T06:48:12;0.80;;;0.80;;
934;SDS011;454;53.254;10.400;2022-07-06T06:50:39;1.00;;;1.00;;
934;SDS011;454;53.254;10.400;2022-07-06T06:53:07;1.13;;;0.80;;
934;SDS011;454;53.254;10.400;2022-07-06T06:55:34;1.60;;;1.50;;
934;SDS011;454;53.254;10.400;2022-07-06T06:58:01;1.33;;;1.23;;
934;SDS011;454;53.254;10.400;2022-07-06T07:00:27;1.10;;;1.10;;
934;SDS011;454;53.254;10.400;2022-07-06T07:02:54;2.43;;;1.10;;
934;SDS011;454;53.254;10.400;2022-07-06T07:05:21;1.23;;;1.00;;
934;SDS011;454;53.254;10.400;2022-07-06T07:07:48;1.73;;;1.63;;
934;SDS011;454;53.254;10.400;2022-07-06T07:10:16;1.23;;;0.90;;
934;SDS011;454;53.254;10.400;2022-07-06T07:12:43;0.50;;;0.50;;
934;SDS011;454;53.254;10.400;2022-07-06T07:15:10;0.80;;;0.60;;
934;SDS011;454;53.254;10.400;2022-07-06T07:17:37;0.60;;;0.60;;
934;SDS011;454;53.254;10.400;2022-07-06T07:20:04;1.20;;;0.70;;
934;SDS011;454;53.254;10.400;2022-07-06T07:22:32;0.93;;;0.83;;
934;SDS011;454;53.254;10.400;2022-07-06T07:24:59;1.33;;;0.60;;
934;SDS011;454;53.254;10.400;2022-07-06T07:27:27;0.80;;;0.80;;
934;SDS011;454;53.254;10.400;2022-07-06T07:29:54;2.40;;;0.73;;
934;SDS011;454;53.254;10.400;2022-07-06T07:32:20;1.90;;;1.00;;
934;SDS011;454;53.254;10.400;2022-07-06T07:34:47;0.80;;;0.70;;
934;SDS011;454;53.254;10.400;2022-07-06T07:37:14;0.80;;;0.80;;
934;SDS011;454;53.254;10.400;2022-07-06T07:39:40;1.33;;;1.17;;
934;SDS011;454;53.254;10.400;2022-07-06T07:42:07;1.60;;;0.80;;
934;SDS011;454;53.254;10.400;2022-07-06T07:44:35;2.23;;;1.03;;
934;SDS011;454;53.254;10.400;2022-07-06T07:47:03;0.63;;;0.63;;
934;SDS011;454;53.254;10.400;2022-07-06T07:49:30;0.80;;;0.80;;
934;SDS011;454;53.254;10.400;2022-07-06T07:51:57;0.70;;;0.70;;
934;SDS011;454;53.254;10.400;2022-07-06T07:54:24;0.77;;;0.77;;
934;SDS011;454;53.254;10.400;2022-07-06T07:56:50;2.20;;;0.90;;
934;SDS011;454;53.254;10.400;2022-07-06T07:59:17;1.63;;;0.67;;
934;SDS011;454;53.254;10.400;2022-07-06T08:01:45;1.03;;;1.00;;
934;SDS011;454;53.254;10.400;2022-07-06T08:04:11;1.07;;;0.70;;
934;SDS011;454;53.254;10.400;2022-07-06T08:06:38;2.23;;;1.00;;
934;SDS011;454;53.254;10.400;2022-07-06T08:09:05;4.13;;;0.97;;
934;SDS011;454;53.254;10.400;2022-07-06T08:11:32;0.70;;;0.70;;
934;SDS011;454;53.254;10.400;2022-07-06T08:13:59;1.40;;;0.83;;
934;SDS011;454;53.254;10.400;2022-07-06T08:16:26;0.80;;;0.80;;
934;SDS011;454;53.254;10.400;2022-07-06T08:18:54;1.97;;;0.80;;
934;SDS011;454;53.254;10.400;2022-07-06T08:21:21;5.00;;;1.20;;
934;SDS011;454;53.254;10.400;2022-07-06T08:23:47;1.57;;;0.70;;
934;SDS011;454;53.254;10.400;2022-07-06T08:26:14;4.13;;;0.80;;
934;SDS011;454;53.254;10.400;2022-07-06T08:28:41;0.90;;;0.90;;
934;SDS011;454;53.254;10.400;2022-07-06T08:31:07;2.10;;;1.47;;
934;SDS011;454;53.254;10.400;2022-07-06T08:33:34;0.67;;;0.67;;
934;SDS011;454;53.254;10.400;2022-07-06T08:36:02;2.30;;;0.83;;
934;SDS011;454;53.254;10.400;2022-07-06T08:38:29;0.70;;;0.70;;
934;SDS011;454;53.254;10.400;2022-07-06T08:40:56;2.60;;;0.70;;
934;SDS011;454;53.254;10.400;2022-07-06T08:43:23;1.50;;;1.00;;
934;SDS011;454;53.254;10.400;2022-07-06T08:45:51;1.53;;;0.80;;
934;SDS011;454;53.254;10.400;2022-07-06T08:48:19;1.70;;;1.70;;
934;SDS011;454;53.254;10.400;2022-07-06T08:50:49;2.20;;;0.80;;
934;SDS011;454;53.254;10.400;2022-07-06T08:53:19;0.87;;;0.83;;
934;SDS011;454;53.254;10.400;2022-07-06T08:55:47;0.77;;;0.77;;
934;SDS011;454;53.254;10.400;2022-07-06T08:58:15;0.87;;;0.73;;
934;SDS011;454;53.254;10.400;2022-07-06T09:00:42;3.60;;;0.80;;
934;SDS011;454;53.254;10.400;2022-07-06T09:03:10;0.83;;;0.50;;
934;SDS011;454;53.254;10.400;2022-07-06T09:05:39;2.30;;;1.10;;
934;SDS011;454;53.254;10.400;2022-07-06T09:08:06;1.93;;;0.60;;
934;SDS011;454;53.254;10.400;2022-07-06T09:10:34;2.57;;;0.53;;
934;SDS011;454;53.254;10.400;2022-07-06T09:13:02;0.70;;;0.70;;
934;SDS011;454;53.254;10.400;2022-07-06T09:15:29;1.60;;;0.90;;
934;SDS011;454;53.254;10.400;2022-07-06T09:17:56;1.13;;;0.80;;
934;SDS011;454;53.254;10.400;2022-07-06T09:20:23;2.63;;;0.90;;
934;SDS011;454;53.254;10.400;2022-07-06T09:22:50;1.07;;;1.07;;
934;SDS011;454;53.254;10.400;2022-07-06T09:25:23;1.20;;;1.10;;
934;SDS011;454;53.254;10.400;2022-07-06T09:27:52;2.50;;;0.80;;
934;SDS011;454;53.254;10.400;2022-07-06T09:30:20;3.13;;;2.80;;
934;SDS011;454;53.254;10.400;2022-07-06T09:32:49;7.93;;;6.60;;
934;SDS011;454;53.254;10.400;2022-07-06T09:35:21;2.73;;;1.73;;
934;SDS011;454;53.254;10.400;2022-07-06T09:37:59;2.43;;;2.30;;
934;SDS011;454;53.254;10.400;2022-07-06T09:40:30;0.80;;;0.47;;
934;SDS011;454;53.254;10.400;2022-07-06T09:45:45;0.50;;;0.50;;
934;SDS011;454;53.254;10.400;2022-07-06T09:48:14;1.17;;;1.17;;
934;SDS011;454;53.254;10.400;2022-07-06T09:50:44;0.70;;;0.70;;
934;SDS011;454;53.254;10.400;2022-07-06T09:53:12;1.13;;;0.70;;
934;SDS011;454;53.254;10.400;2022-07-06T09:55:42;0.73;;;0.73;;
934;SDS011;454;53.254;10.400;2022-07-06T09:58:10;0.60;;;0.60;;
934;SDS011;454;53.254;10.400;2022-07-06T10:00:38;0.80;;;0.50;;
934;SDS011;454;53.254;10.400;2022-07-06T10:03:05;0.70;;;0.70;;
934;SDS011;454;53.254;10.400;2022-07-06T10:05:33;1.20;;;1.10;;
934;SDS011;454;53.254;10.400;2022-07-06T10:08:02;3.40;;;3.10;;
934;SDS011;454;53.254;10.400;2022-07-06T10:10:31;2.40;;;2.30;;
934;SDS011;454;53.254;10.400;2022-07-06T10:12:59;4.60;;;3.90;;
934;SDS011;454;53.254;10.400;2022-07-06T10:15:26;7.70;;;3.87;;
934;SDS011;454;53.254;10.400;2022-07-06T10:17:58;10.00;;;5.50;;
934;SDS011;454;53.254;10.400;2022-07-06T10:20:27;13.57;;;7.37;;
934;SDS011;454;53.254;10.400;2022-07-06T10:22:56;1.17;;;1.07;;
934;SDS011;454;53.254;10.400;2022-07-06T10:25:25;6.13;;;0.60;;
934;SDS011;454;53.254;10.400;2022-07-06T10:27:53;1.13;;;0.60;;
934;SDS011;454;53.254;10.400;2022-07-06T10:30:21;0.40;;;0.40;;
934;SDS011;454;53.254;10.400;2022-07-06T10:32:49;2.90;;;0.50;;
934;SDS011;454;53.254;10.400;2022-07-06T10:35:19;0.90;;;0.63;;
934;SDS011;454;53.254;10.400;2022-07-06T10:37:46;2.30;;;0.60;;
934;SDS011;454;53.254;10.400;2022-07-06T10:40:31;2.50;;;0.60;;
934;SDS011;454;53.254;10.400;2022-07-06T10:43:16;1.03;;;0.80;;
934;SDS011;454;53.254;10.400;2022-07-06T10:45:49;0.40;;;0.40;;
934;SDS011;454;53.254;10.400;2022-07-06T10:48:17;0.53;;;0.53;;
934;SDS011;454;53.254;10.400;2022-07-06T10:50:47;3.33;;;0.50;;
934;SDS011;454;53.254;10.400;2022-07-06T10:53:16;0.83;;;0.83;;
934;SDS011;454;53.254;10.400;2022-07-06T10:55:44;0.50;;;0.50;;
934;SDS011;454;53.254;10.400;2022-07-06T10:58:15;0.70;;;0.43;;
934;SDS011;454;53.254;10.400;2022-07-06T11:01:00;1.50;;;0.47;;
934;SDS011;454;53.254;10.400;2022-07-06T11:03:30;0.70;;;0.70;;
934;SDS011;454;53.254;10.400;2022-07-06T11:06:09;3.20;;;0.50;;
934;SDS011;454;53.254;10.400;2022-07-06T11:11:24;1.83;;;0.70;;
934;SDS011;454;53.254;10.400;2022-07-06T11:13:56;0.73;;;0.73;;
934;SDS011;454;53.254;10.400;2022-07-06T11:16:26;0.37;;;0.37;;
934;SDS011;454;53.254;10.400;2022-07-06T11:18:59;1.50;;;0.30;;
934;SDS011;454;53.254;10.400;2022-07-06T11:21:35;0.90;;;0.30;;
934;SDS011;454;53.254;10.400;2022-07-06T11:24:04;0.67;;;0.30;;
934;SDS011;454;53.254;10.400;2022-07-06T11:26:32;0.33;;;0.33;;
934;SDS011;454;53.254;10.400;2022-07-06T11:29:01;0.50;;;0.47;;
934;SDS011;454;53.254;10.400;2022-07-06T11:31:29;0.50;;;0.50;;
934;SDS011;454;53.254;10.400;2022-07-06T11:33:56;0.40;;;0.20;;
934;SDS011;454;53.254;10.400;2022-07-06T11:36:23;0.50;;;0.30;;
934;SDS011;454;53.254;10.400;2022-07-06T11:38:51;0.60;;;0.50;;
934;SDS011;454;53.254;10.400;2022-07-06T11:41:17;0.67;;;0.30;;
934;SDS011;454;53.254;10.400;2022-07-06T11:43:45;0.53;;;0.53;;
934;SDS011;454;53.254;10.400;2022-07-06T11:46:19;0.50;;;0.50;;
934;SDS011;454;53.254;10.400;2022-07-06T11:48:47;0.47;;;0.47;;
934;SDS011;454;53.254;10.400;2022-07-06T11:51:14;5.93;;;0.80;;
934;SDS011;454;53.254;10.400;2022-07-06T11:53:44;0.70;;;0.70;;
934;SDS011;454;53.254;10.400;2022-07-06T11:56:13;0.67;;;0.30;;
934;SDS011;454;53.254;10.400;2022-07-06T11:58:41;1.60;;;0.50;;
934;SDS011;454;53.254;10.400;2022-07-06T12:01:11;1.13;;;0.93;;
934;SDS011;454;53.254;10.400;2022-07-06T12:03:38;1.17;;;0.50;;
934;SDS011;454;53.254;10.400;2022-07-06T12:06:05;1.00;;;0.80;;
934;SDS011;454;53.254;10.400;2022-07-06T12:08:41;1.17;;;0.70;;
934;SDS011;454;53.254;10.400;2022-07-06T12:11:09;0.57;;;0.57;;
934;SDS011;454;53.254;10.400;2022-07-06T12:13:38;1.80;;;0.53;;
934;SDS011;454;53.254;10.400;2022-07-06T12:16:10;0.40;;;0.40;;
934;SDS011;454;53.254;10.400;2022-07-06T12:18:38;0.57;;;0.57;;
934;SDS011;454;53.254;10.400;2022-07-06T12:21:06;0.63;;;0.63;;
934;SDS011;454;53.254;10.400;2022-07-06T12:23:40;1.37;;;0.50;;
934;SDS011;454;53.254;10.400;2022-07-06T12:26:08;1.27;;;0.57;;
934;SDS011;454;53.254;10.400;2022-07-06T12:28:36;1.50;;;0.80;;
934;SDS011;454;53.254;10.400;2022-07-06T12:31:04;1.17;;;0.50;;
934;SDS011;454;53.254;10.400;2022-07-06T12:33:31;1.80;;;0.73;;
934;SDS011;454;53.254;10.400;2022-07-06T12:36:08;1.60;;;0.50;;
934;SDS011;454;53.254;10.400;2022-07-06T12:38:35;3.40;;;0.70;;
934;SDS011;454;53.254;10.400;2022-07-06T12:41:09;1.10;;;1.10;;
934;SDS011;454;53.254;10.400;2022-07-06T12:43:38;0.67;;;0.50;;
934;SDS011;454;53.254;10.400;2022-07-06T12:46:26;1.40;;;0.77;;
934;SDS011;454;53.254;10.400;2022-07-06T12:48:55;1.13;;;0.93;;
934;SDS011;454;53.254;10.400;2022-07-06T12:51:22;0.90;;;0.77;;
934;SDS011;454;53.254;10.400;2022-07-06T12:53:49;1.90;;;0.50;;
934;SDS011;454;53.254;10.400;2022-07-06T12:56:16;0.50;;;0.50;;
934;SDS011;454;53.254;10.400;2022-07-06T12:58:57;0.77;;;0.43;;
934;SDS011;454;53.254;10.400;2022-07-06T13:01:26;0.70;;;0.53;;
934;SDS011;454;53.254;10.400;2022-07-06T13:03:53;0.77;;;0.30;;
934;SDS011;454;53.254;10.400;2022-07-06T13:06:30;1.30;;;0.40;;
934;SDS011;454;53.254;10.400;2022-07-06T13:08:58;1.13;;;0.70;;
934;SDS011;454;53.254;10.400;2022-07-06T13:11:25;0.70;;;0.43;;
934;SDS011;454;53.254;10.400;2022-07-06T13:13:52;0.90;;;0.70;;
934;SDS011;454;53.254;10.400;2022-07-06T13:16:20;2.10;;;0.57;;
934;SDS011;454;53.254;10.400;2022-07-06T13:18:49;0.53;;;0.53;;
934;SDS011;454;53.254;10.400;2022-07-06T13:21:16;0.90;;;0.60;;
934;SDS011;454;53.254;10.400;2022-07-06T13:23:42;1.37;;;0.60;;
934;SDS011;454;53.254;10.400;2022-07-06T13:26:09;0.43;;;0.43;;
934;SDS011;454;53.254;10.400;2022-07-06T13:28:36;0.67;;;0.67;;
934;SDS011;454;53.254;10.400;2022-07-06T13:31:02;0.60;;;0.60;;
934;SDS011;454;53.254;10.400;2022-07-06T13:33:30;0.53;;;0.53;;
934;SDS011;454;53.254;10.400;2022-07-06T13:35:57;0.53;;;0.53;;
934;SDS011;454;53.254;10.400;2022-07-06T13:38:23;5.27;;;1.40;;
934;SDS011;454;53.254;10.400;2022-07-06T13:40:50;3.50;;;0.90;;
934;SDS011;454;53.254;10.400;2022-07-06T13:43:17;2.83;;;1.10;;
934;SDS011;454;53.254;10.400;2022-07-06T13:45:45;3.83;;;0.80;;
934;SDS011;454;53.254;10.400;2022-07-06T13:48:11;4.07;;;1.00;;
934;SDS011;454;53.254;10.400;2022-07-06T13:50:40;5.80;;;1.20;;
934;SDS011;454;53.254;10.400;2022-07-06T13:53:06;7.37;;;1.80;;
934;SDS011;454;53.254;10.400;2022-07-06T13:55:33;7.47;;;1.00;;
934;SDS011;454;53.254;10.400;2022-07-06T13:58:01;5.80;;;1.00;;
934;SDS011;454;53.254;10.400;2022-07-06T14:00:28;6.73;;;1.23;;
934;SDS011;454;53.254;10.400;2022-07-06T14:02:54;4.00;;;1.20;;
934;SDS011;454;53.254;10.400;2022-07-06T14:05:21;1.60;;;0.90;;
934;SDS011;454;53.254;10.400;2022-07-06T14:07:49;3.77;;;0.70;;
934;SDS011;454;53.254;10.400;2022-07-06T14:10:16;2.30;;;0.43;;
934;SDS011;454;53.254;10.400;2022-07-06T14:12:42;4.77;;;1.20;;
934;SDS011;454;53.254;10.400;2022-07-06T14:15:09;2.87;;;0.60;;
934;SDS011;454;53.254;10.400;2022-07-06T14:17:36;3.07;;;0.87;;
934;SDS011;454;53.254;10.400;2022-07-06T14:20:03;0.30;;;0.30;;
934;SDS011;454;53.254;10.400;2022-07-06T14:22:30;2.00;;;0.50;;
934;SDS011;454;53.254;10.400;2022-07-06T14:24:58;0.60;;;0.60;;
934;SDS011;454;53.254;10.400;2022-07-06T14:27:25;1.97;;;0.67;;
934;SDS011;454;53.254;10.400;2022-07-06T14:29:52;0.67;;;0.67;;
934;SDS011;454;53.254;10.400;2022-07-06T14:32:19;0.53;;;0.53;;
934;SDS011;454;53.254;10.400;2022-07-06T14:34:45;1.97;;;0.90;;
934;SDS011;454;53.254;10.400;2022-07-06T14:37:12;0.57;;;0.57;;
934;SDS011;454;53.254;10.400;2022-07-06T14:39:38;2.63;;;0.87;;
934;SDS011;454;53.254;10.400;2022-07-06T14:42:07;0.63;;;0.60;;
934;SDS011;454;53.254;10.400;2022-07-06T14:44:34;4.27;;;1.20;;
934;SDS011;454;53.254;10.400;2022-07-06T14:47:01;0.40;;;0.40;;
934;SDS011;454;53.254;10.400;2022-07-06T14:49:28;3.50;;;0.87;;
934;SDS011;454;53.254;10.400;2022-07-06T14:51:55;8.10;;;1.20;;
934;SDS011;454;53.254;10.400;2022-07-06T14:54:22;7.30;;;1.27;;
934;SDS011;454;53.254;10.400;2022-07-06T14:56:49;5.07;;;1.10;;
934;SDS011;454;53.254;10.400;2022-07-06T14:59:17;4.00;;;0.50;;
934;SDS011;454;53.254;10.400;2022-07-06T15:01:45;1.03;;;0.70;;
934;SDS011;454;53.254;10.400;2022-07-06T15:04:11;2.10;;;0.50;;
934;SDS011;454;53.254;10.400;2022-07-06T15:06:38;1.70;;;0.67;;
934;SDS011;454;53.254;10.400;2022-07-06T15:09:05;0.50;;;0.50;;
934;SDS011;454;53.254;10.400;2022-07-06T15:11:32;5.97;;;0.73;;
934;SDS011;454;53.254;10.400;2022-07-06T15:13:58;1.07;;;0.57;;
934;SDS011;454;53.254;10.400;2022-07-06T15:16:27;0.70;;;0.50;;
934;SDS011;454;53.254;10.400;2022-07-06T15:18:54;0.57;;;0.57;;
934;SDS011;454;53.254;10.400;2022-07-06T15:21:20;4.27;;;0.50;;
934;SDS011;454;53.254;10.400;2022-07-06T15:23:47;0.70;;;0.70;;
934;SDS011;454;53.254;10.400;2022-07-06T15:26:14;0.70;;;0.40;;
934;SDS011;454;53.254;10.400;2022-07-06T15:28:41;0.50;;;0.50;;
934;SDS011;454;53.254;10.400;2022-07-06T15:31:07;0.33;;;0.33;;
934;SDS011;454;53.254;10.400;2022-07-06T15:33:35;2.23;;;0.70;;
934;SDS011;454;53.254;10.400;2022-07-06T15:36:03;1.37;;;0.87;;
934;SDS011;454;53.254;10.400;2022-07-06T15:38:30;6.87;;;0.87;;
934;SDS011;454;53.254;10.400;2022-07-06T15:40:57;1.93;;;0.57;;
934;SDS011;454;53.254;10.400;2022-07-06T15:43:26;0.90;;;0.50;;
934;SDS011;454;53.254;10.400;2022-07-06T15:45:54;1.23;;;0.53;;
934;SDS011;454;53.254;10.400;2022-07-06T15:48:22;0.50;;;0.50;;
934;SDS011;454;53.254;10.400;2022-07-06T15:50:51;3.47;;;0.50;;
934;SDS011;454;53.254;10.400;2022-07-06T15:53:17;0.70;;;0.70;;
934;SDS011;454;53.254;10.400;2022-07-06T15:55:44;0.40;;;0.40;;
934;SDS011;454;53.254;10.400;2022-07-06T15:58:11;1.10;;;0.73;;
934;SDS011;454;53.254;10.400;2022-07-06T16:00:38;0.50;;;0.50;;
934;SDS011;454;53.254;10.400;2022-07-06T16:03:05;0.97;;;0.60;;
934;SDS011;454;53.254;10.400;2022-07-06T16:05:32;0.60;;;0.60;;
934;SDS011;454;53.254;10.400;2022-07-06T16:08:00;0.67;;;0.50;;
934;SDS011;454;53.254;10.400;2022-07-06T16:10:27;0.70;;;0.60;;
934;SDS011;454;53.254;10.400;2022-07-06T16:12:54;1.27;;;0.63;;
934;SDS011;454;53.254;10.400;2022-07-06T16:15:21;0.60;;;0.60;;
934;SDS011;454;53.254;10.400;2022-07-06T16:17:48;0.70;;;0.70;;
934;SDS011;454;53.254;10.400;2022-07-06T16:20:15;2.23;;;0.60;;
934;SDS011;454;53.254;10.400;2022-07-06T16:22:42;1.50;;;0.70;;
934;SDS011;454;53.254;10.400;2022-07-06T16:25:10;0.77;;;0.77;;
934;SDS011;454;53.254;10.400;2022-07-06T16:27:38;0.87;;;0.47;;
934;SDS011;454;53.254;10.400;2022-07-06T16:30:05;0.43;;;0.40;;
934;SDS011;454;53.254;10.400;2022-07-06T16:32:34;0.70;;;0.40;;
934;SDS011;454;53.254;10.400;2022-07-06T16:35:00;1.00;;;0.60;;
934;SDS011;454;53.254;10.400;2022-07-06T16:37:27;5.70;;;1.13;;
934;SDS011;454;53.254;10.400;2022-07-06T16:39:54;1.50;;;0.77;;
934;SDS011;454;53.254;10.400;2022-07-06T16:42:22;0.63;;;0.50;;
934;SDS011;454;53.254;10.400;2022-07-06T16:44:49;1.70;;;0.70;;
934;SDS011;454;53.254;10.400;2022-07-06T16:47:16;0.40;;;0.40;;
934;SDS011;454;53.254;10.400;2022-07-06T16:49:42;0.47;;;0.47;;
934;SDS011;454;53.254;10.400;2022-07-06T16:52:09;0.90;;;0.67;;
934;SDS011;454;53.254;10.400;2022-07-06T16:54:36;1.87;;;0.40;;
934;SDS011;454;53.254;10.400;2022-07-06T16:57:03;0.60;;;0.50;;
934;SDS011;454;53.254;10.400;2022-07-06T16:59:31;0.40;;;0.40;;
934;SDS011;454;53.254;10.400;2022-07-06T17:01:58;1.70;;;0.63;;
934;SDS011;454;53.254;10.400;2022-07-06T17:04:24;2.00;;;0.50;;
934;SDS011;454;53.254;10.400;2022-07-06T17:06:51;0.63;;;0.60;;
934;SDS011;454;53.254;10.400;2022-07-06T17:09:18;2.57;;;0.50;;
934;SDS011;454;53.254;10.400;2022-07-06T17:11:44;3.63;;;0.60;;
934;SDS011;454;53.254;10.400;2022-07-06T17:14:11;0.50;;;0.50;;
934;SDS011;454;53.254;10.400;2022-07-06T17:16:39;1.23;;;0.60;;
934;SDS011;454;53.254;10.400;2022-07-06T17:19:06;0.40;;;0.40;;
934;SDS011;454;53.254;10.400;2022-07-06T17:21:33;1.23;;;0.83;;
934;SDS011;454;53.254;10.400;2022-07-06T17:24:00;0.50;;;0.50;;
934;SDS011;454;53.254;10.400;2022-07-06T17:26:26;1.27;;;0.60;;
934;SDS011;454;53.254;10.400;2022-07-06T17:28:53;0.70;;;0.50;;
934;SDS011;454;53.254;10.400;2022-07-06T17:31:21;2.37;;;1.00;;
934;SDS011;454;53.254;10.400;2022-07-06T17:33:49;0.50;;;0.50;;
934;SDS011;454;53.254;10.400;2022-07-06T17:36:16;0.70;;;0.70;;
934;SDS011;454;53.254;10.400;2022-07-06T17:38:42;0.60;;;0.60;;
934;SDS011;454;53.254;10.400;2022-07-06T17:41:09;1.00;;;1.00;;
934;SDS011;454;53.254;10.400;2022-07-06T17:43:36;0.60;;;0.60;;
934;SDS011;454;53.254;10.400;2022-07-06T17:46:03;1.80;;;0.80;;
934;SDS011;454;53.254;10.400;2022-07-06T17:48:30;1.60;;;0.57;;
934;SDS011;454;53.254;10.400;2022-07-06T17:50:58;1.27;;;0.80;;
934;SDS011;454;53.254;10.400;2022-07-06T17:53:24;0.77;;;0.60;;
934;SDS011;454;53.254;10.400;2022-07-06T17:55:51;0.37;;;0.37;;
934;SDS011;454;53.254;10.400;2022-07-06T17:58:18;1.20;;;0.60;;
934;SDS011;454;53.254;10.400;2022-07-06T18:00:44;1.70;;;0.53;;
934;SDS011;454;53.254;10.400;2022-07-06T18:03:11;1.60;;;0.60;;
934;SDS011;454;53.254;10.400;2022-07-06T18:05:38;3.80;;;0.50;;
934;SDS011;454;53.254;10.400;2022-07-06T18:08:06;0.83;;;0.63;;
934;SDS011;454;53.254;10.400;2022-07-06T18:10:33;2.40;;;0.90;;
934;SDS011;454;53.254;10.400;2022-07-06T18:12:59;0.53;;;0.53;;
934;SDS011;454;53.254;10.400;2022-07-06T18:15:26;1.23;;;0.70;;
934;SDS011;454;53.254;10.400;2022-07-06T18:17:54;0.60;;;0.60;;
934;SDS011;454;53.254;10.400;2022-07-06T18:20:20;0.30;;;0.30;;
934;SDS011;454;53.254;10.400;2022-07-06T18:22:47;0.60;;;0.60;;
934;SDS011;454;53.254;10.400;2022-07-06T18:25:16;0.50;;;0.50;;
934;SDS011;454;53.254;10.400;2022-07-06T18:27:42;0.83;;;0.50;;
934;SDS011;454;53.254;10.400;2022-07-06T18:30:09;0.67;;;0.63;;
934;SDS011;454;53.254;10.400;2022-07-06T18:32:37;0.43;;;0.43;;
934;SDS011;454;53.254;10.400;2022-07-06T18:35:04;0.50;;;0.50;;
934;SDS011;454;53.254;10.400;2022-07-06T18:37:31;2.10;;;0.60;;
934;SDS011;454;53.254;10.400;2022-07-06T18:39:58;0.63;;;0.60;;
934;SDS011;454;53.254;10.400;2022-07-06T18:42:26;0.70;;;0.70;;
934;SDS011;454;53.254;10.400;2022-07-06T18:44:52;1.43;;;0.60;;
934;SDS011;454;53.254;10.400;2022-07-06T18:47:19;2.60;;;0.70;;
934;SDS011;454;53.254;10.400;2022-07-06T18:49:49;0.60;;;0.60;;
934;SDS011;454;53.254;10.400;2022-07-06T18:52:17;0.50;;;0.50;;
934;SDS011;454;53.254;10.400;2022-07-06T18:54:43;0.90;;;0.70;;
934;SDS011;454;53.254;10.400;2022-07-06T18:57:10;0.73;;;0.73;;
934;SDS011;454;53.254;10.400;2022-07-06T18:59:38;0.70;;;0.70;;
934;SDS011;454;53.254;10.400;2022-07-06T19:02:05;1.70;;;0.40;;
934;SDS011;454;53.254;10.400;2022-07-06T19:04:32;0.53;;;0.53;;
934;SDS011;454;53.254;10.400;2022-07-06T19:06:59;2.10;;;0.60;;
934;SDS011;454;53.254;10.400;2022-07-06T19:09:26;1.40;;;0.50;;
934;SDS011;454;53.254;10.400;2022-07-06T19:11:53;1.70;;;0.87;;
934;SDS011;454;53.254;10.400;2022-07-06T19:14:20;2.63;;;0.77;;
934;SDS011;454;53.254;10.400;2022-07-06T19:16:48;2.10;;;0.70;;
934;SDS011;454;53.254;10.400;2022-07-06T19:19:14;0.60;;;0.43;;
934;SDS011;454;53.254;10.400;2022-07-06T19:21:41;0.70;;;0.70;;
934;SDS011;454;53.254;10.400;2022-07-06T19:24:08;0.60;;;0.60;;
934;SDS011;454;53.254;10.400;2022-07-06T19:26:35;0.80;;;0.80;;
934;SDS011;454;53.254;10.400;2022-07-06T19:29:02;1.20;;;0.73;;
934;SDS011;454;53.254;10.400;2022-07-06T19:31:29;4.03;;;1.20;;
934;SDS011;454;53.254;10.400;2022-07-06T19:33:57;4.30;;;1.40;;
934;SDS011;454;53.254;10.400;2022-07-06T19:36:23;1.03;;;0.70;;
934;SDS011;454;53.254;10.400;2022-07-06T19:38:50;0.60;;;0.60;;